createdAt,value
2018-01-31T01:54:09.062Z,92.71
2018-01-31T01:56:36.603Z,92.81
2018-01-31T01:59:04.145Z,92.69
2018-01-31T02:01:31.723Z,92.78
2018-01-31T02:03:59.290Z,92.29
2018-01-31T02:06:26.877Z,93.23
2018-01-31T02:08:54.419Z,93.08
2018-01-31T02:11:21.965Z,93.16
2018-01-31T02:13:49.513Z,92.93
2018-01-31T02:16:17.951Z,92.80
2018-01-31T02:18:45.511Z,93.57
2018-01-31T02:21:14.062Z,93.39
2018-01-31T02:23:42.441Z,92.32
2018-01-31T02:26:10.794Z,92.29
2018-01-31T02:28:38.382Z,91.49
2018-01-31T02:31:06.885Z,91.63
2018-01-31T02:33:35.165Z,92.88
2018-01-31T02:36:03.525Z,93.04
2018-01-31T02:38:42.998Z,92.20
2018-01-31T02:41:10.546Z,92.86
2018-01-31T02:43:38.852Z,92.12
2018-01-31T02:46:07.225Z,92.61
2018-01-31T02:48:35.543Z,93.24
2018-01-31T02:51:04.010Z,93.80
2018-01-31T02:53:31.546Z,94.22
2018-01-31T02:55:59.120Z,94.29
2018-01-31T02:58:26.704Z,94.27
2018-01-31T03:00:54.282Z,94.08
2018-01-31T03:03:21.823Z,94.26
2018-01-31T03:05:50.313Z,94.36
2018-01-31T03:08:17.857Z,94.58
2018-01-31T03:10:46.354Z,93.96
2018-01-31T03:13:13.902Z,93.36
2018-01-31T03:15:42.292Z,93.89
2018-01-31T03:18:09.879Z,93.28
2018-01-31T03:20:38.246Z,93.76
2018-01-31T03:23:05.833Z,93.60
2018-01-31T03:25:33.394Z,93.08
2018-01-31T03:28:00.978Z,93.71
2018-01-31T03:30:28.519Z,93.50
2018-01-31T03:32:57.072Z,94.18
2018-01-31T03:35:24.665Z,94.27
2018-01-31T03:37:52.221Z,93.97
2018-01-31T03:40:19.803Z,93.87
2018-01-31T03:42:47.436Z,92.39
2018-01-31T03:45:15.782Z,93.24
2018-01-31T03:47:43.329Z,93.23
2018-01-31T03:50:10.909Z,93.55
2018-01-31T03:52:38.451Z,94.29
2018-01-31T03:55:06.765Z,93.07
2018-01-31T03:57:35.061Z,93.36
2018-01-31T04:00:02.648Z,93.54
2018-01-31T04:02:30.188Z,94.04
2018-01-31T04:04:58.761Z,93.96
2018-01-31T04:07:27.267Z,94.16
2018-01-31T04:09:54.814Z,94.66
2018-01-31T04:12:22.398Z,94.46
2018-01-31T04:14:50.003Z,94.49
2018-01-31T04:17:18.400Z,94.05
2018-01-31T04:19:45.976Z,94.38
2018-01-31T04:22:13.561Z,93.77
2018-01-31T04:24:41.192Z,93.58
2018-01-31T04:27:09.514Z,93.62
2018-01-31T04:29:37.100Z,94.02
2018-01-31T04:32:05.563Z,94.28
2018-01-31T04:34:33.115Z,93.92
2018-01-31T04:37:00.657Z,94.66
2018-01-31T04:39:28.205Z,93.67
2018-01-31T04:41:55.757Z,94.59
2018-01-31T04:44:23.314Z,94.32
2018-01-31T04:46:50.850Z,93.52
2018-01-31T04:49:18.442Z,93.23
2018-01-31T04:51:46.814Z,93.18
2018-01-31T04:54:14.354Z,92.98
2018-01-31T04:56:41.898Z,91.78
2018-01-31T04:59:09.438Z,91.78
2018-01-31T05:01:36.981Z,91.91
2018-01-31T05:04:04.527Z,92.00
2018-01-31T05:06:32.109Z,91.53
2018-01-31T05:08:59.650Z,91.44
2018-01-31T05:11:28.002Z,91.49
2018-01-31T05:13:56.434Z,91.13
2018-01-31T05:16:24.685Z,91.55
2018-01-31T05:18:52.230Z,90.80
2018-01-31T05:21:19.769Z,90.48
2018-01-31T05:23:47.319Z,89.99
2018-01-31T05:26:14.862Z,90.77
2018-01-31T05:28:42.407Z,90.40
2018-01-31T05:31:09.953Z,90.28
2018-01-31T05:33:37.497Z,90.38
2018-01-31T05:36:05.079Z,90.10
2018-01-31T05:38:32.622Z,90.77
2018-01-31T05:41:00.197Z,90.46
2018-01-31T05:43:27.810Z,90.28
2018-01-31T05:45:55.357Z,90.29
2018-01-31T05:48:23.820Z,90.60
2018-01-31T05:50:51.391Z,90.49
2018-01-31T05:53:18.930Z,90.51
2018-01-31T05:55:46.469Z,90.68
2018-01-31T05:58:14.022Z,91.07
2018-01-31T06:00:41.567Z,90.54
2018-01-31T06:03:09.153Z,90.54
2018-01-31T06:05:36.695Z,90.52
2018-01-31T06:08:04.238Z,91.13
2018-01-31T06:10:31.773Z,90.63
2018-01-31T06:12:59.331Z,90.58
2018-01-31T06:15:26.939Z,90.57
2018-01-31T06:17:54.477Z,90.54
2018-01-31T06:20:22.053Z,90.79
2018-01-31T06:22:49.596Z,90.91
2018-01-31T06:25:17.199Z,90.30
2018-01-31T06:27:44.744Z,90.65
2018-01-31T06:30:12.281Z,90.15
2018-01-31T06:32:40.725Z,90.38
2018-01-31T06:35:08.334Z,90.28
2018-01-31T06:37:35.981Z,89.77
2018-01-31T06:40:03.546Z,89.31
2018-01-31T06:42:31.150Z,89.61
2018-01-31T06:44:58.689Z,89.54
2018-01-31T06:47:27.157Z,89.66
2018-01-31T06:49:54.701Z,89.70
2018-01-31T06:52:22.282Z,89.19
2018-01-31T06:54:49.857Z,89.46
2018-01-31T06:57:17.401Z,88.77
2018-01-31T06:59:45.867Z,88.62
2018-01-31T07:02:13.442Z,88.75
2018-01-31T07:04:40.991Z,88.87
2018-01-31T07:07:08.542Z,89.11
2018-01-31T07:09:36.215Z,89.37
2018-01-31T07:12:03.749Z,89.08
2018-01-31T07:14:32.198Z,89.30
2018-01-31T07:16:59.741Z,89.67
2018-01-31T07:19:27.284Z,89.04
2018-01-31T07:21:54.864Z,88.89
2018-01-31T07:24:22.406Z,88.73
2018-01-31T07:26:49.951Z,89.23
2018-01-31T07:29:17.489Z,88.34
2018-01-31T07:31:45.803Z,88.50
2018-01-31T07:34:14.190Z,88.36
2018-01-31T07:36:42.526Z,88.77
2018-01-31T07:39:10.105Z,88.98
2018-01-31T07:41:37.649Z,88.50
2018-01-31T07:44:05.225Z,88.48
2018-01-31T07:46:33.616Z,87.64
2018-01-31T07:49:01.203Z,87.97
2018-01-31T07:51:28.742Z,87.47
2018-01-31T07:53:56.277Z,88.06
2018-01-31T07:56:23.818Z,88.34
2018-01-31T07:58:52.274Z,87.42
2018-01-31T08:01:19.846Z,86.78
2018-01-31T08:03:48.292Z,87.25
2018-01-31T08:06:15.910Z,86.27
2018-01-31T08:08:43.485Z,86.80
2018-01-31T08:11:11.023Z,87.05
2018-01-31T08:13:38.602Z,86.44
2018-01-31T08:16:06.146Z,86.66
2018-01-31T08:18:33.691Z,86.28
2018-01-31T08:21:01.239Z,86.20
2018-01-31T08:23:29.622Z,86.04
2018-01-31T08:25:57.205Z,85.80
2018-01-31T08:28:24.794Z,85.47
2018-01-31T08:30:52.349Z,84.84
2018-01-31T08:33:19.890Z,84.93
2018-01-31T08:35:47.442Z,85.21
2018-01-31T08:38:15.042Z,85.42
2018-01-31T08:40:42.602Z,85.71
2018-01-31T08:43:10.147Z,85.24
2018-01-31T08:45:37.694Z,85.58
2018-01-31T08:48:05.277Z,86.10
2018-01-31T08:50:32.822Z,86.22
2018-01-31T08:53:01.186Z,87.00
2018-01-31T08:55:28.740Z,86.72
2018-01-31T08:57:56.287Z,87.07
2018-01-31T09:00:23.826Z,86.89
2018-01-31T09:02:51.369Z,87.45
2018-01-31T09:05:18.950Z,87.39
2018-01-31T09:07:46.495Z,87.69
2018-01-31T09:10:14.084Z,88.47
2018-01-31T09:12:41.640Z,89.16
2018-01-31T09:15:10.094Z,89.39
2018-01-31T09:17:37.629Z,89.61
2018-01-31T09:20:05.170Z,89.73
2018-01-31T09:22:32.765Z,90.16
2018-01-31T09:25:00.307Z,90.29
2018-01-31T09:27:27.848Z,90.28
2018-01-31T09:29:55.408Z,90.53
2018-01-31T09:32:22.954Z,90.13
2018-01-31T09:34:50.522Z,91.12
2018-01-31T09:37:18.082Z,91.58
2018-01-31T09:39:45.647Z,92.33
2018-01-31T09:42:13.204Z,92.81
2018-01-31T09:44:40.826Z,93.32
2018-01-31T09:47:08.376Z,93.48
2018-01-31T09:49:35.961Z,94.10
2018-01-31T09:52:03.508Z,94.03
2018-01-31T09:54:31.057Z,94.25
2018-01-31T09:56:58.606Z,94.96
2018-01-31T09:59:27.079Z,94.79
2018-01-31T10:01:54.616Z,95.73
2018-01-31T10:04:22.162Z,95.79
2018-01-31T10:06:49.710Z,95.84
2018-01-31T10:09:17.254Z,96.08
2018-01-31T10:11:44.834Z,96.07
2018-01-31T10:14:12.381Z,95.84
2018-01-31T10:16:39.929Z,95.98
2018-01-31T10:19:07.482Z,95.91
2018-01-31T10:21:35.029Z,96.08
2018-01-31T10:24:02.578Z,96.43
2018-01-31T10:26:30.126Z,95.93
2018-01-31T10:28:57.674Z,96.32
2018-01-31T10:31:25.214Z,96.15
2018-01-31T10:33:52.761Z,96.06
2018-01-31T10:36:20.309Z,96.14
2018-01-31T10:38:47.855Z,96.01
2018-01-31T10:41:16.310Z,95.95
2018-01-31T10:43:43.854Z,95.97
2018-01-31T10:46:11.406Z,96.17
2018-01-31T10:48:38.953Z,96.47
2018-01-31T10:51:06.538Z,96.16
2018-01-31T10:53:34.093Z,96.14
2018-01-31T10:58:29.275Z,96.24
2018-01-31T11:00:56.830Z,96.32
2018-01-31T11:03:24.378Z,95.89
2018-01-31T11:05:51.930Z,95.96
2018-01-31T11:08:19.478Z,96.10
2018-01-31T11:10:47.025Z,96.20
2018-01-31T11:13:14.580Z,96.32
2018-01-31T11:15:42.141Z,95.97
2018-01-31T11:18:09.703Z,95.79
2018-01-31T11:20:37.284Z,95.80
2018-01-31T11:23:05.618Z,95.93
2018-01-31T11:25:33.159Z,95.76
2018-01-31T11:28:01.609Z,95.35
2018-01-31T11:30:29.145Z,95.83
2018-01-31T11:32:56.696Z,95.62
2018-01-31T11:35:24.244Z,95.83
2018-01-31T11:37:51.782Z,95.45
2018-01-31T11:40:19.323Z,95.63
2018-01-31T11:42:46.866Z,95.51
2018-01-31T11:45:14.406Z,95.75
2018-01-31T11:47:41.951Z,96.06
2018-01-31T11:50:09.490Z,95.77
2018-01-31T11:52:37.038Z,95.63
2018-01-31T11:55:04.582Z,95.25
2018-01-31T11:57:32.130Z,95.10
2018-01-31T11:59:59.671Z,94.95
2018-01-31T12:02:27.230Z,94.68
2018-01-31T12:04:54.774Z,94.73
2018-01-31T12:07:22.309Z,94.58
2018-01-31T12:09:49.846Z,93.80
2018-01-31T12:15:25.099Z,93.81
2018-01-31T12:17:52.633Z,93.77
2018-01-31T12:20:31.917Z,93.15
2018-01-31T12:23:12.857Z,92.77
2018-01-31T12:28:56.196Z,92.12
2018-01-31T12:31:35.680Z,92.08
2018-01-31T12:34:15.047Z,92.18
2018-01-31T12:36:54.382Z,92.46
2018-01-31T12:39:22.283Z,92.00
2018-01-31T12:41:49.322Z,90.92
2018-01-31T12:44:17.215Z,91.30
2018-01-31T12:46:56.546Z,91.70
2018-01-31T12:49:35.945Z,92.14
2018-01-31T12:52:28.459Z,91.01
2018-01-31T12:55:07.834Z,90.70
2018-01-31T12:57:47.273Z,91.28
2018-01-31T13:00:27.575Z,90.22
2018-01-31T13:03:07.032Z,91.12
2018-01-31T13:05:46.397Z,90.57
2018-01-31T13:08:26.679Z,91.14
2018-01-31T13:14:11.047Z,91.32
2018-01-31T13:16:50.582Z,90.67
2018-01-31T13:19:19.093Z,90.78
2018-01-31T13:21:58.323Z,91.59
2018-01-31T13:24:37.786Z,91.89
2018-01-31T13:27:17.181Z,90.90
2018-01-31T13:29:56.654Z,91.04
2018-01-31T13:32:36.157Z,90.96
2018-01-31T13:35:15.601Z,90.61
2018-01-31T13:41:05.816Z,90.61
2018-01-31T13:43:45.349Z,90.22
2018-01-31T13:46:24.862Z,90.68
2018-01-31T13:49:04.329Z,90.79
2018-01-31T13:54:56.577Z,90.92
2018-01-31T14:00:34.858Z,90.33
2018-01-31T14:03:14.378Z,90.37
2018-01-31T14:05:53.764Z,90.44
2018-01-31T14:08:33.155Z,90.10
2018-01-31T14:11:12.582Z,90.05
2018-01-31T14:13:52.043Z,91.14
2018-01-31T14:16:31.562Z,90.67
2018-01-31T14:22:29.662Z,90.87
2018-01-31T14:25:09.134Z,91.07
2018-01-31T14:27:48.638Z,90.90
2018-01-31T14:30:28.150Z,91.05
2018-01-31T14:33:07.669Z,90.56
2018-01-31T14:35:47.066Z,90.34
2018-01-31T14:38:14.064Z,90.75
2018-01-31T14:40:41.824Z,90.96
2018-01-31T14:43:08.859Z,90.66
2018-01-31T14:45:35.853Z,90.40
2018-01-31T14:48:02.845Z,91.00
2018-01-31T14:50:29.834Z,90.31
2018-01-31T14:52:56.830Z,90.53
2018-01-31T14:55:23.871Z,90.62
2018-01-31T14:57:50.868Z,89.98
2018-01-31T15:00:17.861Z,89.98
2018-01-31T15:02:45.758Z,89.50
2018-01-31T15:05:12.754Z,89.18
2018-01-31T15:07:39.756Z,89.01
2018-01-31T15:10:07.534Z,89.36
2018-01-31T15:12:34.522Z,89.33
2018-01-31T15:15:01.517Z,89.41
2018-01-31T15:17:28.518Z,89.27
2018-01-31T15:19:55.508Z,88.95
2018-01-31T15:22:22.570Z,89.05
2018-01-31T15:24:49.565Z,89.15
2018-01-31T15:27:16.570Z,89.22
2018-01-31T15:29:43.572Z,89.10
2018-01-31T15:32:10.569Z,88.55
2018-01-31T15:34:38.464Z,88.80
2018-01-31T15:37:05.528Z,89.05
2018-01-31T15:39:32.528Z,88.08
2018-01-31T15:41:59.613Z,88.60
2018-01-31T15:44:26.606Z,89.05
2018-01-31T15:46:53.597Z,88.88
2018-01-31T15:49:20.638Z,88.92
2018-01-31T15:51:47.638Z,88.92
2018-01-31T15:54:14.631Z,88.77
2018-01-31T15:56:41.621Z,88.47
2018-01-31T15:59:08.621Z,88.53
2018-01-31T16:01:35.619Z,88.60
2018-01-31T16:04:02.611Z,88.63
2018-01-31T16:06:29.677Z,89.08
2018-01-31T16:08:56.674Z,88.96
2018-01-31T16:11:23.704Z,88.86
2018-01-31T16:13:50.720Z,89.18
2018-01-31T16:16:18.255Z,89.22
2018-01-31T16:18:57.577Z,88.76
2018-01-31T16:21:25.176Z,89.32
2018-01-31T16:23:52.714Z,89.03
2018-01-31T16:26:20.248Z,89.27
2018-01-31T16:28:59.553Z,89.55
2018-01-31T16:31:38.991Z,89.18
2018-01-31T16:34:06.523Z,88.81
2018-01-31T16:36:34.061Z,89.08
2018-01-31T16:39:01.594Z,89.21
2018-01-31T16:41:29.143Z,89.51
2018-01-31T16:43:57.489Z,88.90
2018-01-31T16:46:25.025Z,89.20
2018-01-31T16:48:52.574Z,89.17
2018-01-31T16:51:20.105Z,89.08
2018-01-31T16:53:47.638Z,89.01
2018-01-31T16:56:15.174Z,88.98
2018-01-31T16:58:42.718Z,89.20
2018-01-31T17:01:10.270Z,89.13
2018-01-31T17:03:38.578Z,89.04
2018-01-31T17:06:06.110Z,89.50
2018-01-31T17:08:33.637Z,89.26
2018-01-31T17:11:01.179Z,89.71
2018-01-31T17:13:28.709Z,89.49
2018-01-31T17:15:56.243Z,90.34
2018-01-31T17:18:23.847Z,90.78
2018-01-31T17:20:52.157Z,90.70
2018-01-31T17:23:19.698Z,90.63
2018-01-31T17:25:59.282Z,90.50
2018-01-31T17:28:26.894Z,90.61
2018-01-31T17:30:54.454Z,90.54
2018-01-31T17:33:21.985Z,90.25
2018-01-31T17:35:49.573Z,90.07
2018-01-31T17:38:17.133Z,89.98
2018-01-31T17:40:45.563Z,90.17
2018-01-31T17:43:13.878Z,89.75
2018-01-31T17:45:42.274Z,89.87
2018-01-31T17:48:10.829Z,91.12
2018-01-31T17:50:38.462Z,89.89
2018-01-31T17:53:06.906Z,89.37
2018-01-31T17:55:34.443Z,89.52
2018-01-31T17:58:01.970Z,88.41
2018-01-31T18:00:30.313Z,88.64
2018-01-31T18:02:58.367Z,88.92
2018-01-31T18:05:25.939Z,88.53
2018-01-31T18:07:53.497Z,88.30
2018-01-31T18:10:21.050Z,88.37
2018-01-31T18:12:48.585Z,88.51
2018-01-31T18:15:16.152Z,88.76
2018-01-31T18:17:43.684Z,88.70
2018-01-31T18:20:11.988Z,88.69
2018-01-31T18:22:39.517Z,89.04
2018-01-31T18:25:07.059Z,88.58
2018-01-31T18:27:34.706Z,87.93
2018-01-31T18:30:02.237Z,88.11
2018-01-31T18:32:29.766Z,87.60
2018-01-31T18:34:57.303Z,87.54
2018-01-31T18:37:24.841Z,87.19
2018-01-31T18:39:52.378Z,86.69
2018-01-31T18:42:19.950Z,86.46
2018-01-31T18:44:47.967Z,86.37
2018-01-31T18:47:16.299Z,86.21
2018-01-31T18:49:44.790Z,86.40
2018-01-31T18:52:12.319Z,85.75
2018-01-31T18:54:40.663Z,85.43
2018-01-31T18:57:09.211Z,85.43
2018-01-31T18:59:37.513Z,84.62
2018-01-31T19:02:05.051Z,84.61
2018-01-31T19:04:32.586Z,84.15
2018-01-31T19:07:00.115Z,84.59
2018-01-31T19:09:27.730Z,84.04
2018-01-31T19:11:55.271Z,84.33
2018-01-31T19:14:22.849Z,84.43
2018-01-31T19:16:50.386Z,84.02
2018-01-31T19:19:17.971Z,84.16
2018-01-31T19:21:46.451Z,84.41
2018-01-31T19:24:14.926Z,84.93
2018-01-31T19:26:43.414Z,84.92
2018-01-31T19:29:10.941Z,84.27
2018-01-31T19:31:38.482Z,84.55
2018-01-31T19:34:06.084Z,84.61
2018-01-31T19:36:33.628Z,84.34
2018-01-31T19:39:01.162Z,83.81
2018-01-31T19:41:28.779Z,83.65
2018-01-31T19:43:56.310Z,84.00
2018-01-31T19:46:23.845Z,83.74
2018-01-31T19:48:51.386Z,83.52
2018-01-31T19:51:18.921Z,84.00
2018-01-31T19:53:46.454Z,84.07
2018-01-31T19:56:13.988Z,83.38
2018-01-31T19:58:41.523Z,83.47
2018-01-31T20:01:09.058Z,83.46
2018-01-31T20:03:36.590Z,83.28
2018-01-31T20:06:04.177Z,84.11
2018-01-31T20:08:31.719Z,83.65
2018-01-31T20:10:59.261Z,83.60
2018-01-31T20:13:26.801Z,83.49
2018-01-31T20:15:54.334Z,83.78
2018-01-31T20:18:21.865Z,83.29
2018-01-31T20:20:49.405Z,83.37
2018-01-31T20:23:16.941Z,83.79
2018-01-31T20:25:45.280Z,83.95
2018-01-31T20:28:13.722Z,83.93
2018-01-31T20:30:41.258Z,83.93
2018-01-31T20:33:08.978Z,84.88
2018-01-31T20:35:36.542Z,85.25
2018-01-31T20:38:04.075Z,86.17
2018-01-31T20:40:31.615Z,86.70
2018-01-31T20:42:59.154Z,87.34
2018-01-31T20:45:26.807Z,88.26
2018-01-31T20:47:55.247Z,87.81
2018-01-31T20:50:22.783Z,88.26
2018-01-31T20:52:50.314Z,88.43
2018-01-31T20:55:17.952Z,88.46
2018-01-31T20:57:46.025Z,88.25
2018-01-31T21:00:15.242Z,88.23
2018-01-31T21:02:45.262Z,88.35
2018-01-31T21:05:13.346Z,88.13
2018-01-31T21:07:41.590Z,88.40
2018-01-31T21:10:09.573Z,88.61
2018-01-31T21:12:46.534Z,88.10
2018-01-31T21:15:23.192Z,88.19
2018-01-31T21:17:51.791Z,88.07
2018-01-31T21:20:20.304Z,88.29
2018-01-31T21:22:49.282Z,88.08
2018-01-31T21:25:17.336Z,88.74
2018-01-31T21:27:46.180Z,88.09
2018-01-31T21:30:14.193Z,88.52
2018-01-31T21:32:41.886Z,88.84
2018-01-31T21:35:09.684Z,88.43
2018-01-31T21:37:38.322Z,88.36
2018-01-31T21:40:07.892Z,88.79
2018-01-31T21:42:35.812Z,88.27
2018-01-31T21:45:04.282Z,88.00
2018-01-31T21:47:32.898Z,88.39
2018-01-31T21:50:00.523Z,88.03
2018-01-31T21:52:28.366Z,87.76
2018-01-31T21:54:56.038Z,88.69
2018-01-31T21:57:29.935Z,89.00
2018-01-31T21:59:57.541Z,87.34
2018-01-31T22:02:25.995Z,87.16
2018-01-31T22:04:54.401Z,87.77
2018-01-31T22:07:22.707Z,89.07
2018-01-31T22:09:50.349Z,88.51
2018-01-31T22:12:17.883Z,88.29
2018-01-31T22:14:45.459Z,88.44
2018-01-31T22:17:13.142Z,89.10
2018-01-31T22:19:40.726Z,89.83
2018-01-31T22:22:08.358Z,90.39
2018-01-31T22:24:35.918Z,89.72
2018-01-31T22:27:03.446Z,90.26
2018-01-31T22:29:30.976Z,90.70
2018-01-31T22:31:58.598Z,90.83
2018-01-31T22:34:26.170Z,91.28
2018-01-31T22:36:53.823Z,91.39
2018-01-31T22:39:22.296Z,91.76
2018-01-31T22:41:49.831Z,92.20
2018-01-31T22:44:18.323Z,91.88
2018-01-31T22:46:45.857Z,92.19
2018-01-31T22:49:13.426Z,91.35
2018-01-31T22:51:40.960Z,92.00
2018-01-31T22:54:08.538Z,92.03
2018-01-31T22:56:36.152Z,91.30
2018-01-31T22:59:03.710Z,91.32
2018-01-31T23:01:32.165Z,91.19
2018-01-31T23:04:00.706Z,91.39
2018-01-31T23:06:28.311Z,90.70
2018-01-31T23:08:56.721Z,90.93
2018-01-31T23:11:29.963Z,91.11
2018-01-31T23:14:04.122Z,90.66
2018-01-31T23:16:32.549Z,90.43
2018-01-31T23:19:00.986Z,90.15
2018-01-31T23:21:28.522Z,91.12
2018-01-31T23:23:56.056Z,90.83
2018-01-31T23:26:23.633Z,90.57
2018-01-31T23:28:51.227Z,90.57
2018-01-31T23:31:18.762Z,89.85
2018-01-31T23:33:46.299Z,89.73
2018-01-31T23:36:13.915Z,90.19
2018-01-31T23:38:41.482Z,90.35
2018-01-31T23:41:09.108Z,89.38
2018-01-31T23:43:36.642Z,90.21
2018-01-31T23:46:04.183Z,89.75
2018-01-31T23:48:31.819Z,89.60
2018-01-31T23:50:59.353Z,89.32
2018-01-31T23:53:27.770Z,89.44
2018-01-31T23:55:56.242Z,88.71
2018-01-31T23:58:24.620Z,88.91
